createdAt,value
2017-07-31T00:01:03.143Z,63.25
2017-07-31T00:03:29.519Z,63.28
2017-07-31T00:05:55.906Z,63.22
2017-07-31T00:08:22.298Z,63.20
2017-07-31T00:10:49.455Z,63.18
2017-07-31T00:13:15.811Z,63.12
2017-07-31T00:15:42.187Z,63.06
2017-07-31T00:18:08.649Z,63.02
2017-07-31T00:20:35.018Z,62.97
2017-07-31T00:23:01.404Z,62.92
2017-07-31T00:25:27.769Z,62.90
2017-07-31T00:27:54.142Z,62.85
2017-07-31T00:30:20.502Z,62.81
2017-07-31T00:32:46.872Z,62.74
2017-07-31T00:35:13.255Z,62.79
2017-07-31T00:37:39.631Z,62.86
2017-07-31T00:40:06.007Z,63.04
2017-07-31T00:42:32.384Z,63.02
2017-07-31T00:44:58.719Z,63.03
2017-07-31T00:47:25.098Z,62.94
2017-07-31T00:49:51.459Z,62.89
2017-07-31T00:52:17.827Z,62.83
2017-07-31T00:54:44.949Z,62.75
2017-07-31T00:57:11.326Z,62.84
2017-07-31T00:59:37.687Z,62.86
2017-07-31T01:02:04.823Z,62.87
2017-07-31T01:04:31.201Z,62.74
2017-07-31T01:06:58.347Z,62.65
2017-07-31T01:09:24.730Z,62.64
2017-07-31T01:11:51.859Z,62.54
2017-07-31T01:14:18.218Z,62.56
2017-07-31T01:16:44.580Z,62.70
2017-07-31T01:19:10.934Z,62.68
2017-07-31T01:21:38.055Z,62.68
2017-07-31T01:24:04.510Z,62.63
2017-07-31T01:26:30.901Z,62.59
2017-07-31T01:28:57.291Z,62.57
2017-07-31T01:31:23.652Z,62.60
2017-07-31T01:33:50.022Z,62.70
2017-07-31T01:36:16.386Z,62.80
2017-07-31T01:38:42.760Z,62.70
2017-07-31T01:41:09.895Z,62.60
2017-07-31T01:43:36.253Z,62.56
2017-07-31T01:46:02.632Z,62.52
2017-07-31T01:48:28.998Z,62.60
2017-07-31T01:50:55.362Z,62.66
2017-07-31T01:53:21.726Z,62.70
2017-07-31T01:55:48.095Z,62.76
2017-07-31T01:58:14.494Z,62.79
2017-07-31T02:00:40.855Z,62.83
2017-07-31T02:03:07.223Z,62.85
2017-07-31T02:05:33.583Z,62.89
2017-07-31T02:07:59.956Z,62.98
2017-07-31T02:10:27.096Z,62.99
2017-07-31T02:12:53.455Z,63.02
2017-07-31T02:15:19.827Z,63.11
2017-07-31T02:17:46.958Z,63.01
2017-07-31T02:20:13.354Z,62.97
2017-07-31T02:22:40.488Z,63.00
2017-07-31T02:25:06.846Z,62.98
2017-07-31T02:27:33.214Z,63.08
2017-07-31T02:30:00.450Z,63.01
2017-07-31T02:32:26.843Z,63.00
2017-07-31T02:34:53.226Z,63.08
2017-07-31T02:37:19.590Z,62.98
2017-07-31T02:39:45.963Z,63.06
2017-07-31T02:42:12.344Z,63.01
2017-07-31T02:44:38.707Z,63.08
2017-07-31T02:47:05.066Z,63.22
2017-07-31T02:49:31.442Z,63.18
2017-07-31T02:51:57.994Z,63.17
2017-07-31T02:54:24.390Z,63.30
2017-07-31T02:56:50.765Z,63.27
2017-07-31T02:59:17.141Z,63.28
2017-07-31T03:01:43.508Z,63.34
2017-07-31T03:04:09.866Z,63.31
2017-07-31T03:06:36.260Z,63.23
2017-07-31T03:09:02.656Z,63.21
2017-07-31T03:11:29.010Z,63.12
2017-07-31T03:13:55.378Z,63.15
2017-07-31T03:16:21.743Z,63.07
2017-07-31T03:18:48.106Z,63.04
2017-07-31T03:21:14.474Z,63.09
2017-07-31T03:23:40.838Z,63.06
2017-07-31T03:26:07.225Z,63.04
2017-07-31T03:28:33.602Z,63.00
2017-07-31T03:30:59.968Z,63.04
2017-07-31T03:33:26.342Z,62.96
2017-07-31T03:35:52.704Z,62.98
2017-07-31T03:38:19.079Z,62.98
2017-07-31T03:40:45.440Z,62.99
2017-07-31T03:43:11.810Z,62.99
2017-07-31T03:45:38.197Z,63.04
2017-07-31T03:48:04.557Z,63.01
2017-07-31T03:50:30.945Z,62.99
2017-07-31T03:52:57.309Z,62.99
2017-07-31T03:55:23.699Z,63.01
2017-07-31T03:57:50.075Z,63.01
2017-07-31T04:00:16.482Z,62.99
2017-07-31T04:02:42.854Z,63.00
2017-07-31T04:05:09.230Z,62.97
2017-07-31T04:07:36.353Z,62.99
2017-07-31T04:10:02.731Z,63.00
2017-07-31T04:12:29.094Z,62.94
2017-07-31T04:14:56.235Z,62.97
2017-07-31T04:17:22.642Z,62.92
2017-07-31T04:19:49.012Z,62.94
2017-07-31T04:22:15.383Z,62.97
2017-07-31T04:24:41.762Z,62.96
2017-07-31T04:27:08.149Z,62.88
2017-07-31T04:29:34.527Z,62.90
2017-07-31T04:32:00.893Z,62.97
2017-07-31T04:34:27.253Z,62.85
2017-07-31T04:36:54.382Z,62.80
2017-07-31T04:39:20.746Z,62.79
2017-07-31T04:41:47.134Z,62.84
2017-07-31T04:44:13.495Z,62.83
2017-07-31T04:46:39.862Z,62.82
2017-07-31T04:49:06.226Z,62.85
2017-07-31T04:51:32.613Z,62.80
2017-07-31T04:53:59.014Z,62.76
2017-07-31T04:56:25.384Z,62.75
2017-07-31T04:58:51.781Z,62.81
2017-07-31T05:01:18.156Z,62.67
2017-07-31T05:03:44.527Z,62.72
2017-07-31T05:06:10.883Z,62.75
2017-07-31T05:08:37.456Z,62.65
2017-07-31T05:11:03.834Z,62.64
2017-07-31T05:13:30.235Z,62.78
2017-07-31T05:15:56.603Z,62.71
2017-07-31T05:18:23.002Z,62.66
2017-07-31T05:20:49.366Z,62.64
2017-07-31T05:23:15.750Z,62.62
2017-07-31T05:25:42.106Z,62.60
2017-07-31T05:28:08.471Z,62.60
2017-07-31T05:30:34.842Z,62.59
2017-07-31T05:33:01.243Z,62.61
2017-07-31T05:35:27.627Z,62.62
2017-07-31T05:37:54.791Z,62.59
2017-07-31T05:40:21.932Z,62.63
2017-07-31T05:42:48.319Z,62.61
2017-07-31T05:45:14.678Z,62.59
2017-07-31T05:47:41.050Z,62.62
2017-07-31T05:50:07.434Z,62.56
2017-07-31T05:52:33.801Z,62.51
2017-07-31T05:55:00.198Z,62.51
2017-07-31T05:57:26.565Z,62.48
2017-07-31T05:59:52.959Z,62.48
2017-07-31T06:02:19.335Z,62.53
2017-07-31T06:04:45.703Z,62.57
2017-07-31T06:07:12.078Z,62.58
2017-07-31T06:09:38.458Z,62.44
2017-07-31T06:12:04.835Z,62.47
2017-07-31T06:14:31.204Z,62.52
2017-07-31T06:16:57.555Z,62.54
2017-07-31T06:19:23.917Z,62.37
2017-07-31T06:21:50.298Z,62.38
2017-07-31T06:24:17.535Z,62.42
2017-07-31T06:26:45.112Z,62.39
2017-07-31T06:29:11.661Z,62.41
2017-07-31T06:31:38.231Z,62.58
2017-07-31T06:34:04.748Z,62.56
2017-07-31T06:36:31.126Z,62.21
2017-07-31T06:38:57.504Z,62.23
2017-07-31T06:41:23.911Z,62.46
2017-07-31T06:43:50.286Z,62.52
2017-07-31T06:46:16.647Z,62.64
2017-07-31T06:48:43.019Z,63.77
2017-07-31T06:51:09.383Z,63.40
2017-07-31T06:53:35.775Z,63.08
2017-07-31T06:56:02.147Z,63.23
2017-07-31T06:58:28.515Z,63.11
2017-07-31T07:00:54.898Z,63.20
2017-07-31T07:03:21.258Z,63.23
2017-07-31T07:05:47.672Z,63.29
2017-07-31T07:08:14.042Z,63.17
2017-07-31T07:10:40.410Z,62.87
2017-07-31T07:13:06.984Z,62.75
2017-07-31T07:15:33.358Z,62.72
2017-07-31T07:17:59.723Z,62.78
2017-07-31T07:20:26.087Z,62.72
2017-07-31T07:22:52.458Z,62.93
2017-07-31T07:25:18.939Z,62.93
2017-07-31T07:27:45.298Z,63.00
2017-07-31T07:30:11.695Z,62.61
2017-07-31T07:32:38.058Z,62.85
2017-07-31T07:35:04.436Z,62.93
2017-07-31T07:37:30.800Z,62.93
2017-07-31T07:39:57.922Z,62.90
2017-07-31T07:42:24.315Z,62.84
2017-07-31T07:44:50.675Z,62.86
2017-07-31T07:47:17.831Z,62.86
2017-07-31T07:49:44.203Z,62.77
2017-07-31T07:52:11.326Z,62.67
2017-07-31T07:54:37.700Z,62.62
2017-07-31T07:57:04.847Z,62.56
2017-07-31T07:59:31.220Z,62.47
2017-07-31T08:01:58.347Z,62.41
2017-07-31T08:04:24.732Z,62.36
2017-07-31T08:06:51.977Z,62.41
2017-07-31T08:09:18.352Z,62.40
2017-07-31T08:11:44.718Z,62.45
2017-07-31T08:14:11.102Z,62.45
2017-07-31T08:16:37.495Z,62.51
2017-07-31T08:19:03.895Z,62.44
2017-07-31T08:21:30.283Z,62.40
2017-07-31T08:23:56.683Z,62.38
2017-07-31T08:26:23.099Z,61.76
2017-07-31T08:28:49.486Z,61.99
2017-07-31T08:31:15.884Z,62.27
2017-07-31T08:33:42.272Z,62.17
2017-07-31T08:36:08.663Z,62.27
2017-07-31T08:38:35.036Z,62.30
2017-07-31T08:41:01.433Z,62.32
2017-07-31T08:43:27.842Z,62.27
2017-07-31T08:45:54.216Z,62.16
2017-07-31T08:48:20.629Z,62.19
2017-07-31T08:50:47.075Z,62.11
2017-07-31T08:53:13.486Z,62.05
2017-07-31T08:55:39.870Z,62.00
2017-07-31T08:58:06.241Z,62.24
2017-07-31T09:00:32.648Z,62.12
2017-07-31T09:02:59.032Z,62.29
2017-07-31T09:05:25.400Z,62.24
2017-07-31T09:07:51.774Z,62.26
2017-07-31T09:10:18.156Z,62.17
2017-07-31T09:12:44.541Z,62.15
2017-07-31T09:15:10.954Z,61.80
2017-07-31T09:17:39.390Z,61.84
2017-07-31T09:20:05.806Z,61.41
2017-07-31T09:22:32.275Z,61.17
2017-07-31T09:24:58.844Z,61.38
2017-07-31T09:27:25.214Z,61.30
2017-07-31T09:29:51.598Z,61.07
2017-07-31T09:32:17.974Z,61.17
2017-07-31T09:34:44.368Z,61.20
2017-07-31T09:37:11.502Z,61.20
2017-07-31T09:39:37.902Z,61.18
2017-07-31T09:42:04.299Z,61.16
2017-07-31T09:44:30.669Z,60.97
2017-07-31T09:46:57.040Z,61.08
2017-07-31T09:49:23.443Z,60.87
2017-07-31T09:51:49.831Z,60.88
2017-07-31T09:54:16.978Z,60.71
2017-07-31T09:56:43.352Z,60.64
2017-07-31T09:59:10.505Z,60.34
2017-07-31T10:01:36.876Z,60.38
2017-07-31T10:04:04.036Z,60.17
2017-07-31T10:06:31.176Z,60.33
2017-07-31T10:08:58.200Z,60.39
2017-07-31T10:11:24.653Z,59.81
2017-07-31T10:13:51.020Z,60.82
2017-07-31T10:16:17.504Z,60.51
2017-07-31T10:18:43.882Z,60.30
2017-07-31T10:21:10.242Z,60.15
2017-07-31T10:23:36.619Z,59.83
2017-07-31T10:26:02.996Z,60.25
2017-07-31T10:28:30.145Z,60.78
2017-07-31T10:30:56.535Z,60.66
2017-07-31T10:33:23.654Z,60.18
2017-07-31T10:35:50.019Z,60.47
2017-07-31T10:38:16.488Z,60.57
2017-07-31T10:40:42.882Z,60.60
2017-07-31T10:43:09.507Z,60.60
2017-07-31T10:45:36.649Z,60.61
2017-07-31T10:48:05.215Z,60.15
2017-07-31T10:50:32.790Z,60.28
2017-07-31T10:52:59.276Z,60.50
2017-07-31T10:55:25.843Z,60.63
2017-07-31T10:57:52.213Z,60.64
2017-07-31T11:00:18.583Z,60.62
2017-07-31T11:02:44.943Z,60.24
2017-07-31T11:05:11.339Z,59.72
2017-07-31T11:07:37.723Z,59.74
2017-07-31T11:10:04.144Z,60.02
2017-07-31T11:12:30.518Z,60.40
2017-07-31T11:14:56.899Z,60.49
2017-07-31T11:17:23.299Z,60.54
2017-07-31T11:19:49.672Z,60.50
2017-07-31T11:22:16.031Z,60.60
2017-07-31T11:24:42.438Z,60.62
2017-07-31T11:27:08.783Z,60.62
2017-07-31T11:29:35.162Z,60.58
2017-07-31T11:32:01.558Z,60.63
2017-07-31T11:34:27.950Z,60.59
2017-07-31T11:36:54.316Z,60.66
2017-07-31T11:39:21.443Z,60.66
2017-07-31T11:41:47.844Z,60.37
2017-07-31T11:44:14.213Z,60.21
2017-07-31T11:46:40.588Z,60.44
2017-07-31T11:49:07.111Z,60.54
2017-07-31T11:51:33.483Z,60.68
2017-07-31T11:53:59.872Z,60.31
2017-07-31T11:56:26.251Z,60.71
2017-07-31T11:58:52.646Z,60.84
2017-07-31T12:01:19.024Z,60.75
2017-07-31T12:03:46.172Z,60.43
2017-07-31T12:06:12.544Z,60.29
2017-07-31T12:08:39.785Z,59.85
2017-07-31T12:11:06.155Z,59.96
2017-07-31T12:13:32.523Z,60.05
2017-07-31T12:15:58.926Z,59.99
2017-07-31T12:18:25.318Z,59.86
2017-07-31T12:20:52.442Z,59.92
2017-07-31T12:23:18.830Z,58.65
2017-07-31T12:25:45.991Z,58.95
2017-07-31T12:28:13.235Z,58.82
2017-07-31T12:30:39.606Z,59.54
2017-07-31T12:33:05.991Z,58.83
2017-07-31T12:35:32.375Z,57.63
2017-07-31T12:37:58.870Z,57.63
2017-07-31T12:40:25.255Z,57.84
2017-07-31T12:42:51.724Z,58.95
2017-07-31T12:45:18.108Z,58.36
2017-07-31T12:47:44.467Z,58.75
2017-07-31T12:50:10.900Z,60.09
2017-07-31T12:52:37.306Z,59.82
2017-07-31T12:55:03.662Z,59.87
2017-07-31T12:57:30.016Z,59.96
2017-07-31T12:59:56.520Z,60.03
2017-07-31T13:02:22.907Z,60.13
2017-07-31T13:04:49.310Z,60.26
2017-07-31T13:07:15.698Z,60.40
2017-07-31T13:09:42.051Z,60.40
2017-07-31T13:12:08.435Z,60.47
2017-07-31T13:14:34.800Z,60.48
2017-07-31T13:17:01.161Z,60.47
2017-07-31T13:19:27.546Z,60.59
2017-07-31T13:21:53.899Z,60.69
2017-07-31T13:24:20.274Z,60.76
2017-07-31T13:26:46.644Z,60.79
2017-07-31T13:29:13.017Z,60.74
2017-07-31T13:31:39.393Z,60.73
2017-07-31T13:34:05.807Z,60.79
2017-07-31T13:36:32.184Z,60.69
2017-07-31T13:38:58.823Z,60.72
2017-07-31T13:41:25.190Z,60.77
2017-07-31T13:43:51.576Z,60.72
2017-07-31T13:46:17.938Z,60.77
2017-07-31T13:48:44.300Z,60.80
2017-07-31T13:51:10.683Z,60.73
2017-07-31T13:53:37.311Z,60.88
2017-07-31T13:56:03.691Z,60.96
2017-07-31T13:58:30.081Z,60.95
2017-07-31T14:00:56.473Z,60.96
2017-07-31T14:03:26.678Z,61.04
2017-07-31T14:05:53.044Z,61.16
2017-07-31T14:08:19.477Z,61.18
2017-07-31T14:10:46.034Z,61.14
2017-07-31T14:13:12.402Z,61.10
2017-07-31T14:15:38.770Z,61.14
2017-07-31T14:18:05.154Z,61.26
2017-07-31T14:20:31.531Z,61.17
2017-07-31T14:22:57.899Z,61.01
2017-07-31T14:25:24.305Z,61.08
2017-07-31T14:27:50.688Z,61.21
2017-07-31T14:30:17.159Z,61.18
2017-07-31T14:32:43.546Z,61.28
2017-07-31T14:35:09.937Z,61.22
2017-07-31T14:37:36.325Z,61.30
2017-07-31T14:40:02.728Z,61.41
2017-07-31T14:42:29.119Z,61.33
2017-07-31T14:44:55.500Z,61.31
2017-07-31T14:47:21.869Z,61.38
2017-07-31T14:49:48.245Z,61.42
2017-07-31T14:52:14.609Z,61.46
2017-07-31T14:54:41.050Z,61.51
2017-07-31T14:57:07.450Z,61.52
2017-07-31T14:59:33.846Z,61.49
2017-07-31T15:02:00.755Z,61.53
2017-07-31T15:04:27.223Z,61.54
2017-07-31T15:06:53.642Z,61.52
2017-07-31T15:09:20.778Z,61.47
2017-07-31T15:11:47.171Z,61.50
2017-07-31T15:14:13.543Z,61.53
2017-07-31T15:16:40.119Z,61.46
2017-07-31T15:19:06.504Z,61.53
2017-07-31T15:21:33.554Z,61.43
2017-07-31T15:23:59.919Z,61.35
2017-07-31T15:26:26.291Z,61.28
2017-07-31T15:28:52.693Z,60.97
2017-07-31T15:31:19.099Z,60.77
2017-07-31T15:33:45.521Z,61.28
2017-07-31T15:36:12.707Z,61.38
